Pagina principale
METAR-TAF:

METAR-TAF

Aeroporti :

Caracas, Venezuela

Aeroporto Internazionale Simón Bolívar

latitudine: 10-36N, longitudine: 066-59W, altezza: 43 m

Osservazione

Il bollettino è stato emesso 59 minuti fa, alle 16:00 UTC
Vento 6 kt da nord-est
Temperature 30°C
Umidità 70%
Pressione 1013 hPa
Visibilità 10 km o più
Poco nuvoloso ad un'altezza di 1600 ft

METAR: SVMI 191600Z 05006KT 9999 FEW016 30/24 Q1013

Ora: 12:59 (16:59 UTC)

Previsione

Il bollettino è stato emesso 59 minuti fa, alle 16:00 UTC
Previsione valida dal 18 alle 18 UTC al 19 alle 18 UTC
Vento 7 kt da est
Visibilità 10 km o più
Poco nuvoloso ad un'altezza di 1600 ft
Evoluzione graduale
dal 18 alle 19 UTC al 18 alle 23 UTC
Vento 10 kt da est
Nubi sparse ad un'altezza di 1600 ft

TAF: SVMI 191600Z 1818/1918 09007KT 9999 FEW016 TX33/19Z TN24/09Z BECMG 1819/1823 09010KT SCT016

Osservazioni e previsioni meteorologiche di più di 4000 aeroporti (messaggi METAR e TAF).

Le stazioni disponibili sono rappresentate dai dischi gialli e rossi sulla carta.

Puntare il mouse per vedere il nome della stazione.

Clicca sopra per visualizzare le osservazioni e previsioni meteorologiche.

Per cambiare la mappa : fare clic sui pulsanti verdi con una croce nera per ingrandire, il pulsante verde con un trattino per diminuire, o sulla freccia verde per le mappe adiacenti.


METAR-TAF: